createdAt,value
2019-02-16T00:00:54.246Z,15.20
2019-02-16T00:01:54.473Z,14.20
2019-02-16T00:02:54.690Z,15.40
2019-02-16T00:03:54.908Z,14.50
2019-02-16T00:04:55.128Z,16.80
2019-02-16T00:05:55.345Z,16.80
2019-02-16T00:06:55.565Z,16.20
2019-02-16T00:07:55.786Z,14.50
2019-02-16T00:08:56.064Z,15.30
2019-02-16T00:09:56.222Z,16.40
2019-02-16T00:10:56.439Z,17.50
2019-02-16T00:11:56.661Z,16.60
2019-02-16T00:12:56.875Z,17.30
2019-02-16T00:13:57.099Z,16.50
2019-02-16T00:14:57.367Z,16.70
2019-02-16T00:15:57.537Z,17.60
2019-02-16T00:16:57.760Z,15.30
2019-02-16T00:17:57.979Z,15.00
2019-02-16T00:18:58.198Z,18.70
2019-02-16T00:19:58.418Z,18.80
2019-02-16T00:21:04.079Z,17.60
2019-02-16T00:21:58.858Z,16.80
2019-02-16T00:22:59.080Z,17.40
2019-02-16T00:23:59.299Z,17.30
2019-02-16T00:24:59.518Z,24.50
2019-02-16T00:25:59.741Z,22.70
2019-02-16T00:26:59.966Z,20.20
2019-02-16T00:28:00.183Z,18.70
2019-02-16T00:29:00.404Z,19.90
2019-02-16T00:30:00.625Z,18.10
2019-02-16T00:31:00.844Z,18.00
2019-02-16T00:32:01.065Z,17.40
2019-02-16T00:33:01.286Z,17.90
2019-02-16T00:34:01.506Z,14.00
2019-02-16T00:35:01.727Z,18.50
2019-02-16T00:36:01.943Z,16.60
2019-02-16T00:37:02.161Z,17.30
2019-02-16T00:38:02.381Z,17.70
2019-02-16T00:39:02.596Z,16.20
2019-02-16T00:40:02.818Z,16.50
2019-02-16T00:41:03.036Z,15.40
2019-02-16T00:42:03.248Z,18.80
2019-02-16T00:43:03.470Z,16.70
2019-02-16T00:44:03.691Z,19.60
2019-02-16T00:45:03.912Z,16.40
2019-02-16T00:46:04.135Z,16.20
2019-02-16T00:47:04.357Z,15.40
2019-02-16T00:48:04.574Z,15.80
2019-02-16T00:49:04.790Z,16.70
2019-02-16T00:50:05.008Z,15.00
2019-02-16T00:51:13.150Z,18.20
2019-02-16T00:52:05.447Z,15.60
2019-02-16T00:53:05.665Z,16.20
2019-02-16T00:54:05.889Z,16.50
2019-02-16T00:55:06.107Z,15.80
2019-02-16T00:56:06.326Z,17.30
2019-02-16T00:57:06.546Z,17.20
2019-02-16T00:58:06.765Z,15.20
2019-02-16T00:59:06.986Z,19.30
2019-02-16T01:00:07.205Z,15.30
2019-02-16T01:01:07.426Z,19.10
2019-02-16T01:02:07.643Z,16.50
2019-02-16T01:03:07.866Z,16.70
2019-02-16T01:04:08.088Z,19.40
2019-02-16T01:05:08.328Z,15.60
2019-02-16T01:06:08.523Z,17.20
2019-02-16T01:07:08.742Z,16.20
2019-02-16T01:08:08.962Z,15.90
2019-02-16T01:09:09.186Z,16.70
2019-02-16T01:10:09.406Z,17.00
2019-02-16T01:11:09.626Z,18.70
2019-02-16T01:12:09.846Z,16.60
2019-02-16T01:13:10.066Z,15.80
2019-02-16T01:14:10.283Z,15.30
2019-02-16T01:15:10.508Z,17.90
2019-02-16T01:16:10.733Z,15.70
2019-02-16T01:17:10.948Z,17.10
2019-02-16T01:18:11.167Z,15.40
2019-02-16T01:19:11.392Z,14.80
2019-02-16T01:20:11.606Z,15.30
2019-02-16T01:21:11.822Z,18.00
2019-02-16T01:22:12.042Z,14.00
2019-02-16T01:23:12.264Z,18.70
2019-02-16T01:24:12.483Z,15.60
2019-02-16T01:25:12.701Z,16.20
2019-02-16T01:26:12.925Z,18.10
2019-02-16T01:27:13.144Z,16.30
2019-02-16T01:28:13.351Z,17.40
2019-02-16T01:29:13.572Z,16.30
2019-02-16T01:30:13.794Z,17.00
2019-02-16T01:31:14.010Z,16.90
2019-02-16T01:32:14.229Z,18.80
2019-02-16T01:33:14.449Z,16.90
2019-02-16T01:34:14.666Z,16.60
2019-02-16T01:35:14.888Z,15.90
2019-02-16T01:36:15.109Z,17.10
2019-02-16T01:37:15.329Z,19.70
2019-02-16T01:38:15.543Z,15.90
2019-02-16T01:39:15.763Z,17.40
2019-02-16T01:40:15.981Z,15.90
2019-02-16T01:41:16.197Z,14.90
2019-02-16T01:42:16.415Z,17.60
2019-02-16T01:43:16.631Z,21.10
2019-02-16T01:44:16.850Z,16.80
2019-02-16T01:45:17.069Z,18.40
2019-02-16T01:46:17.287Z,19.70
2019-02-16T01:47:17.508Z,17.20
2019-02-16T01:48:17.726Z,20.10
2019-02-16T01:49:17.945Z,19.60
2019-02-16T01:50:18.161Z,18.40
2019-02-16T01:51:18.381Z,17.10
2019-02-16T01:52:18.601Z,17.20
2019-02-16T01:53:18.820Z,18.10
2019-02-16T01:54:19.040Z,16.70
2019-02-16T01:55:19.260Z,17.50
2019-02-16T01:56:19.479Z,17.90
2019-02-16T01:57:19.701Z,19.00
2019-02-16T01:58:19.916Z,18.40
2019-02-16T01:59:20.133Z,18.00
2019-02-16T02:00:20.352Z,19.80
2019-02-16T02:01:20.561Z,18.80
2019-02-16T02:02:20.781Z,20.90
2019-02-16T02:03:21.004Z,21.50
2019-02-16T02:04:21.228Z,20.30
2019-02-16T02:05:21.444Z,21.40
2019-02-16T02:06:21.665Z,23.00
2019-02-16T02:07:21.884Z,18.00
2019-02-16T02:08:22.103Z,19.80
2019-02-16T02:09:22.321Z,18.60
2019-02-16T02:10:22.558Z,18.70
2019-02-16T02:11:22.757Z,26.80
2019-02-16T02:12:22.977Z,29.20
2019-02-16T02:13:23.205Z,33.70
2019-02-16T02:14:23.414Z,34.00
2019-02-16T02:15:23.628Z,35.20
2019-02-16T02:16:23.848Z,29.50
2019-02-16T02:17:24.072Z,29.50
2019-02-16T02:18:24.286Z,28.30
2019-02-16T02:19:24.506Z,30.30
2019-02-16T02:20:24.727Z,27.90
2019-02-16T02:21:24.942Z,25.70
2019-02-16T02:22:25.162Z,27.60
2019-02-16T02:23:25.380Z,22.70
2019-02-16T02:24:25.598Z,21.00
2019-02-16T02:25:25.823Z,17.00
2019-02-16T02:26:26.037Z,19.50
2019-02-16T02:27:26.251Z,20.50
2019-02-16T02:28:26.473Z,18.10
2019-02-16T02:29:26.691Z,19.90
2019-02-16T02:30:26.909Z,20.10
2019-02-16T02:31:27.146Z,19.70
2019-02-16T02:32:27.340Z,22.10
2019-02-16T02:33:27.559Z,18.70
2019-02-16T02:34:27.787Z,21.00
2019-02-16T02:35:28.003Z,17.90
2019-02-16T02:36:28.224Z,18.90
2019-02-16T02:37:28.462Z,19.80
2019-02-16T02:38:28.648Z,20.90
2019-02-16T02:39:28.864Z,19.10
2019-02-16T02:40:29.085Z,18.40
2019-02-16T02:41:29.305Z,20.80
2019-02-16T02:42:29.524Z,19.70
2019-02-16T02:43:29.741Z,18.20
2019-02-16T02:44:29.958Z,17.60
2019-02-16T02:45:30.172Z,17.60
2019-02-16T02:46:30.384Z,17.00
2019-02-16T02:47:30.599Z,19.90
2019-02-16T02:48:30.815Z,17.60
2019-02-16T02:49:31.033Z,16.90
2019-02-16T02:50:31.263Z,18.10
2019-02-16T02:51:31.481Z,17.00
2019-02-16T02:52:31.681Z,16.40
2019-02-16T02:53:31.940Z,16.40
2019-02-16T02:54:32.129Z,18.80
2019-02-16T02:55:32.349Z,19.10
2019-02-16T02:56:32.617Z,19.00
2019-02-16T02:57:32.788Z,17.40
2019-02-16T02:58:33.029Z,16.70
2019-02-16T02:59:33.225Z,17.20
2019-02-16T03:00:33.447Z,16.20
2019-02-16T03:01:33.660Z,15.10
2019-02-16T03:02:33.882Z,16.50
2019-02-16T03:03:34.100Z,19.50
2019-02-16T03:04:34.325Z,15.90
2019-02-16T03:05:34.547Z,17.70
2019-02-16T03:06:34.767Z,17.40
2019-02-16T03:07:34.995Z,17.20
2019-02-16T03:08:35.206Z,20.00
2019-02-16T03:09:35.413Z,18.70
2019-02-16T03:10:35.730Z,17.60
2019-02-16T03:11:35.849Z,19.00
2019-02-16T03:12:36.075Z,18.30
2019-02-16T03:13:36.291Z,18.30
2019-02-16T03:14:36.543Z,16.80
2019-02-16T03:15:36.780Z,17.20
2019-02-16T03:16:36.997Z,15.00
2019-02-16T03:17:37.218Z,16.70
2019-02-16T03:18:37.430Z,18.00
2019-02-16T03:19:37.660Z,15.70
2019-02-16T03:20:37.869Z,17.10
2019-02-16T03:21:38.084Z,16.90
2019-02-16T03:22:38.302Z,16.20
2019-02-16T03:23:38.525Z,14.90
2019-02-16T03:24:38.752Z,16.30
2019-02-16T03:25:38.963Z,14.60
2019-02-16T03:26:39.194Z,16.00
2019-02-16T03:27:39.402Z,17.80
2019-02-16T03:28:39.626Z,17.10
2019-02-16T03:29:39.866Z,17.00
2019-02-16T03:30:40.065Z,15.50
2019-02-16T03:31:40.301Z,13.40
2019-02-16T03:32:40.503Z,15.50
2019-02-16T03:33:40.737Z,15.30
2019-02-16T03:34:40.937Z,14.40
2019-02-16T03:35:41.156Z,17.70
2019-02-16T03:36:41.377Z,18.80
2019-02-16T03:37:41.592Z,15.10
2019-02-16T03:38:41.817Z,13.20
2019-02-16T03:39:42.027Z,14.30
2019-02-16T03:40:42.256Z,16.10
2019-02-16T03:41:42.456Z,15.90
2019-02-16T03:42:42.681Z,15.70
2019-02-16T03:43:42.902Z,14.80
2019-02-16T03:44:43.126Z,15.90
2019-02-16T03:45:43.343Z,16.50
2019-02-16T03:46:43.561Z,17.00
2019-02-16T03:47:43.778Z,18.10
2019-02-16T03:48:44.004Z,16.40
2019-02-16T03:49:44.207Z,16.30
2019-02-16T03:50:44.428Z,16.10
2019-02-16T03:51:44.655Z,16.90
2019-02-16T03:52:44.866Z,16.40
2019-02-16T03:53:45.085Z,17.00
2019-02-16T03:54:45.351Z,20.10
2019-02-16T03:55:45.542Z,15.90
2019-02-16T03:56:45.765Z,16.90
2019-02-16T03:57:45.992Z,18.10
2019-02-16T03:58:46.205Z,17.70
2019-02-16T03:59:46.426Z,15.90
2019-02-16T04:00:46.643Z,16.20
2019-02-16T04:01:47.193Z,17.00
2019-02-16T04:02:47.089Z,16.00
2019-02-16T04:03:47.309Z,17.50
2019-02-16T04:04:47.515Z,16.20
2019-02-16T04:05:47.736Z,16.50
2019-02-16T04:06:48.081Z,15.00
2019-02-16T04:07:48.174Z,19.30
2019-02-16T04:08:48.538Z,18.20
2019-02-16T04:09:48.614Z,16.80
2019-02-16T04:10:48.825Z,16.30
2019-02-16T04:11:49.049Z,16.60
2019-02-16T04:12:49.266Z,17.70
2019-02-16T04:13:49.489Z,18.30
2019-02-16T04:14:49.706Z,15.20
2019-02-16T04:15:49.927Z,16.00
2019-02-16T04:16:50.140Z,15.30
2019-02-16T04:17:50.359Z,13.70
2019-02-16T04:18:50.577Z,15.70
2019-02-16T04:19:50.800Z,14.40
2019-02-16T04:20:51.021Z,14.60
2019-02-16T04:21:51.250Z,15.70
2019-02-16T04:22:51.471Z,15.30
2019-02-16T04:23:51.692Z,14.00
2019-02-16T04:24:51.921Z,14.20
2019-02-16T04:25:52.135Z,13.60
2019-02-16T04:26:52.348Z,15.00
2019-02-16T04:27:52.566Z,12.70
2019-02-16T04:28:52.805Z,13.70
2019-02-16T04:29:53.001Z,15.30
2019-02-16T04:30:53.215Z,14.20
2019-02-16T04:31:53.435Z,16.20
2019-02-16T04:32:53.657Z,15.10
2019-02-16T04:33:53.877Z,14.10
2019-02-16T04:34:54.094Z,18.10
2019-02-16T04:35:54.315Z,15.50
2019-02-16T04:36:54.533Z,17.00
2019-02-16T04:37:54.746Z,14.60
2019-02-16T04:38:54.971Z,15.80
2019-02-16T04:39:55.191Z,14.40
2019-02-16T04:40:55.410Z,12.90
2019-02-16T04:41:55.626Z,14.30
2019-02-16T04:42:55.843Z,16.80
2019-02-16T04:43:56.063Z,15.30
2019-02-16T04:44:56.282Z,16.70
2019-02-16T04:45:56.500Z,14.20
2019-02-16T04:46:56.713Z,13.90
2019-02-16T04:47:56.939Z,13.70
2019-02-16T04:48:57.157Z,12.10
2019-02-16T04:49:57.396Z,15.40
2019-02-16T04:50:57.677Z,14.50
2019-02-16T04:51:57.887Z,13.10
2019-02-16T04:52:58.101Z,13.70
2019-02-16T04:53:58.323Z,13.20
2019-02-16T04:54:58.539Z,13.90
2019-02-16T04:55:58.761Z,12.00
2019-02-16T04:56:58.974Z,12.20
2019-02-16T04:57:59.190Z,11.90
2019-02-16T04:58:59.413Z,10.80
2019-02-16T04:59:59.629Z,13.20
2019-02-16T05:00:59.846Z,13.40
2019-02-16T05:02:00.063Z,13.90
2019-02-16T05:03:00.283Z,12.40
2019-02-16T05:04:00.498Z,13.40
2019-02-16T05:05:00.713Z,10.60
2019-02-16T05:06:00.937Z,12.20
2019-02-16T05:07:01.165Z,12.90
2019-02-16T05:08:01.383Z,11.40
2019-02-16T05:09:01.603Z,12.30
2019-02-16T05:10:01.852Z,11.80
2019-02-16T05:11:02.029Z,11.60
2019-02-16T05:12:02.258Z,13.70
2019-02-16T05:13:02.471Z,11.90
2019-02-16T05:14:02.689Z,12.50
2019-02-16T05:15:02.910Z,11.90
2019-02-16T05:16:03.171Z,12.70
2019-02-16T05:17:03.344Z,12.40
2019-02-16T05:18:03.565Z,13.60
2019-02-16T05:19:03.785Z,16.70
2019-02-16T05:20:04.002Z,13.30
2019-02-16T05:21:04.225Z,12.50
2019-02-16T05:22:04.446Z,11.50
2019-02-16T05:23:04.661Z,12.30
2019-02-16T05:24:04.877Z,12.00
2019-02-16T05:25:05.097Z,12.00
2019-02-16T05:26:05.316Z,12.80
2019-02-16T05:27:05.538Z,12.00
2019-02-16T05:28:05.764Z,11.80
2019-02-16T05:29:05.976Z,12.60
2019-02-16T05:30:06.194Z,14.00
2019-02-16T05:31:06.407Z,11.20
2019-02-16T05:32:06.624Z,11.50
2019-02-16T05:33:06.838Z,13.30
2019-02-16T05:34:07.060Z,14.80
2019-02-16T05:35:07.280Z,11.40
2019-02-16T05:36:07.498Z,14.10
2019-02-16T05:37:07.717Z,12.90
2019-02-16T05:38:07.934Z,13.60
2019-02-16T05:39:08.155Z,13.40
2019-02-16T05:40:08.371Z,13.20
2019-02-16T05:41:08.591Z,12.70
2019-02-16T05:42:08.810Z,12.70
2019-02-16T05:43:09.029Z,13.00
2019-02-16T05:44:09.250Z,12.00
2019-02-16T05:45:09.466Z,14.60
2019-02-16T05:46:09.688Z,12.60
2019-02-16T05:47:09.902Z,12.20
2019-02-16T05:48:10.122Z,12.20
2019-02-16T05:49:10.339Z,12.70
2019-02-16T05:50:10.557Z,16.10
2019-02-16T05:51:10.779Z,11.90
2019-02-16T05:52:10.992Z,14.50
2019-02-16T05:53:11.213Z,12.90
2019-02-16T05:54:11.432Z,13.30
2019-02-16T05:55:11.666Z,13.50
2019-02-16T05:56:11.868Z,13.30
2019-02-16T05:57:12.085Z,13.90
2019-02-16T05:58:12.318Z,15.90
2019-02-16T05:59:12.523Z,14.10
2019-02-16T06:00:12.747Z,14.60
2019-02-16T06:01:12.956Z,15.30
2019-02-16T06:02:13.183Z,14.50
2019-02-16T06:03:13.393Z,12.90
2019-02-16T06:04:13.632Z,13.70
2019-02-16T06:05:13.826Z,14.10
2019-02-16T06:06:14.047Z,14.60
2019-02-16T06:07:14.269Z,15.50
2019-02-16T06:08:14.488Z,15.10
2019-02-16T06:09:14.706Z,14.80
2019-02-16T06:10:14.933Z,14.60
2019-02-16T06:11:15.145Z,14.50
2019-02-16T06:12:15.366Z,14.30
2019-02-16T06:13:15.586Z,14.90
2019-02-16T06:14:15.804Z,13.90
2019-02-16T06:15:16.024Z,13.40
2019-02-16T06:16:16.241Z,15.80
2019-02-16T06:17:16.462Z,14.60
2019-02-16T06:18:16.680Z,17.10
2019-02-16T06:19:16.898Z,12.80
2019-02-16T06:20:17.114Z,15.60
2019-02-16T06:21:17.352Z,15.80
2019-02-16T06:22:17.550Z,15.90
2019-02-16T06:23:17.769Z,13.10
2019-02-16T06:24:17.989Z,13.80
2019-02-16T06:25:18.218Z,14.50
2019-02-16T06:26:18.429Z,13.30
2019-02-16T06:27:18.648Z,14.10
2019-02-16T06:28:18.868Z,14.40
2019-02-16T06:29:19.083Z,13.80
2019-02-16T06:30:19.300Z,13.40
2019-02-16T06:31:19.517Z,13.90
2019-02-16T06:32:19.734Z,14.40
2019-02-16T06:33:19.968Z,17.40
2019-02-16T06:34:20.182Z,14.80
2019-02-16T06:35:20.393Z,14.80
2019-02-16T06:36:20.617Z,15.90
2019-02-16T06:37:20.829Z,12.90
2019-02-16T06:38:21.050Z,13.50
2019-02-16T06:39:21.271Z,15.30
2019-02-16T06:40:21.488Z,14.90
2019-02-16T06:41:21.709Z,15.20
2019-02-16T06:42:21.924Z,14.60
2019-02-16T06:43:22.143Z,14.40
2019-02-16T06:44:22.365Z,11.90
2019-02-16T06:45:22.580Z,13.10
2019-02-16T06:46:22.795Z,12.10
2019-02-16T06:47:23.013Z,12.40
2019-02-16T06:48:23.235Z,14.30
2019-02-16T06:49:23.449Z,13.80
2019-02-16T06:50:23.671Z,12.40
2019-02-16T06:51:23.886Z,14.70
2019-02-16T06:52:24.106Z,16.50
2019-02-16T06:53:24.326Z,16.70
2019-02-16T06:54:24.544Z,15.10
2019-02-16T06:55:24.763Z,17.90
2019-02-16T06:56:24.984Z,14.60
2019-02-16T06:57:25.204Z,14.20
2019-02-16T06:58:25.417Z,13.10
2019-02-16T06:59:25.634Z,13.00
2019-02-16T07:00:25.854Z,13.00
2019-02-16T07:01:26.073Z,11.50
2019-02-16T07:02:26.293Z,11.40
2019-02-16T07:03:26.512Z,12.90
2019-02-16T07:04:26.729Z,11.40
2019-02-16T07:05:26.942Z,14.00
2019-02-16T07:06:27.161Z,13.10
2019-02-16T07:07:27.379Z,10.90
2019-02-16T07:08:27.599Z,11.90
2019-02-16T07:09:27.819Z,12.00
2019-02-16T07:10:28.036Z,11.70
2019-02-16T07:11:28.281Z,11.30
2019-02-16T07:12:28.472Z,12.00
2019-02-16T07:13:28.693Z,13.60
2019-02-16T07:14:28.913Z,10.80
2019-02-16T07:15:29.133Z,12.20
2019-02-16T07:16:29.353Z,11.00
2019-02-16T07:17:29.572Z,11.80
2019-02-16T07:18:29.791Z,10.70
2019-02-16T07:19:30.013Z,11.00
2019-02-16T07:20:30.230Z,11.30
2019-02-16T07:21:30.449Z,11.40
2019-02-16T07:22:30.673Z,11.40
2019-02-16T07:23:30.894Z,13.20
2019-02-16T07:24:31.119Z,9.50
2019-02-16T07:25:31.332Z,11.40
2019-02-16T07:26:31.553Z,11.20
2019-02-16T07:27:31.771Z,11.00
2019-02-16T07:28:31.991Z,10.30
2019-02-16T07:29:32.212Z,9.10
2019-02-16T07:30:32.432Z,12.20
2019-02-16T07:31:32.654Z,10.60
2019-02-16T07:32:32.870Z,10.00
2019-02-16T07:33:33.091Z,10.40
2019-02-16T07:34:33.313Z,10.90
2019-02-16T07:35:33.534Z,12.60
2019-02-16T07:36:33.748Z,12.60
2019-02-16T07:37:33.969Z,13.00
2019-02-16T07:38:34.187Z,10.40
2019-02-16T07:39:34.404Z,11.70
2019-02-16T07:40:34.620Z,11.00
2019-02-16T07:41:34.844Z,10.60
2019-02-16T07:42:35.064Z,12.00
2019-02-16T07:43:35.285Z,10.20
2019-02-16T07:44:35.502Z,11.30
2019-02-16T07:45:35.720Z,11.90
2019-02-16T07:46:35.941Z,10.00
2019-02-16T07:47:36.161Z,11.10
2019-02-16T07:48:36.378Z,11.30
2019-02-16T07:49:36.601Z,13.60
2019-02-16T07:50:36.819Z,12.50
2019-02-16T07:51:37.040Z,11.80
2019-02-16T07:52:37.262Z,12.40
2019-02-16T07:53:37.485Z,11.60
2019-02-16T07:54:37.698Z,12.10
2019-02-16T07:55:37.928Z,12.20
2019-02-16T07:56:38.144Z,12.60
2019-02-16T07:57:38.363Z,14.80
2019-02-16T07:58:38.589Z,11.40
2019-02-16T07:59:38.805Z,15.10
2019-02-16T08:00:39.025Z,14.00
2019-02-16T08:01:39.248Z,14.60
2019-02-16T08:02:39.468Z,16.40
2019-02-16T08:03:39.695Z,14.50
2019-02-16T08:04:39.906Z,15.90
2019-02-16T08:05:40.126Z,16.90
2019-02-16T08:06:40.345Z,16.40
2019-02-16T08:07:40.566Z,15.10
2019-02-16T08:08:40.785Z,14.00
2019-02-16T08:09:41.007Z,17.50
2019-02-16T08:10:41.231Z,14.90
2019-02-16T08:11:41.449Z,15.40
2019-02-16T08:12:41.672Z,14.30
2019-02-16T08:13:41.898Z,15.20
2019-02-16T08:14:42.113Z,17.10
2019-02-16T08:15:42.328Z,14.80
2019-02-16T08:16:42.547Z,11.40
2019-02-16T08:17:42.766Z,12.10
2019-02-16T08:18:42.992Z,12.80
2019-02-16T08:19:43.195Z,14.10
2019-02-16T08:20:44.251Z,10.70
2019-02-16T08:21:43.698Z,11.60
2019-02-16T08:22:43.922Z,10.00
2019-02-16T08:23:44.139Z,8.80
2019-02-16T08:24:44.358Z,10.60
2019-02-16T08:25:44.580Z,11.80
2019-02-16T08:26:44.798Z,10.70
2019-02-16T08:27:45.020Z,9.20
2019-02-16T08:28:45.242Z,10.20
2019-02-16T08:29:45.477Z,10.90
2019-02-16T08:30:45.683Z,10.20
2019-02-16T08:31:45.915Z,14.00
2019-02-16T08:32:46.123Z,12.20
2019-02-16T08:33:46.350Z,13.60
2019-02-16T08:34:46.570Z,11.50
2019-02-16T08:35:46.791Z,14.10
2019-02-16T08:36:47.013Z,15.10
2019-02-16T08:37:47.231Z,13.70
2019-02-16T08:38:47.454Z,15.30
2019-02-16T08:39:47.673Z,11.40
2019-02-16T08:40:47.896Z,13.80
2019-02-16T08:41:48.118Z,12.10
2019-02-16T08:42:48.337Z,12.40
2019-02-16T08:43:48.557Z,12.90
2019-02-16T08:44:48.781Z,14.20
2019-02-16T08:45:49.004Z,12.90
2019-02-16T08:46:49.221Z,12.10
2019-02-16T08:47:49.441Z,14.70
2019-02-16T08:48:49.665Z,12.90
2019-02-16T08:49:49.890Z,13.90
2019-02-16T08:50:50.109Z,11.50
2019-02-16T08:51:50.332Z,14.20
2019-02-16T08:52:50.597Z,13.00
2019-02-16T08:53:50.767Z,15.00
2019-02-16T08:54:50.991Z,12.30
2019-02-16T08:55:51.203Z,21.00
2019-02-16T08:56:51.426Z,50.40
2019-02-16T08:57:51.647Z,26.10
2019-02-16T08:58:51.862Z,40.90
2019-02-16T08:59:52.083Z,37.80
2019-02-16T09:00:52.304Z,46.50
2019-02-16T09:01:52.527Z,19.20
2019-02-16T09:02:52.750Z,19.00
2019-02-16T09:03:52.970Z,24.30
2019-02-16T09:04:53.191Z,33.90
2019-02-16T09:05:53.411Z,16.20
2019-02-16T09:06:53.630Z,23.40
2019-02-16T09:07:53.853Z,13.60
2019-02-16T09:08:54.080Z,12.80
2019-02-16T09:09:54.301Z,15.20
2019-02-16T09:10:54.523Z,10.60
2019-02-16T09:11:54.747Z,15.50
2019-02-16T09:12:54.968Z,13.00
2019-02-16T09:13:55.194Z,11.40
2019-02-16T09:14:55.414Z,13.60
2019-02-16T09:15:55.640Z,12.10
2019-02-16T09:16:55.858Z,10.90
2019-02-16T09:17:56.081Z,10.90
2019-02-16T09:18:56.303Z,12.50
2019-02-16T09:19:56.522Z,12.30
2019-02-16T09:20:56.742Z,11.80
2019-02-16T09:21:56.972Z,10.30
2019-02-16T09:22:57.196Z,9.50
2019-02-16T09:23:59.428Z,12.50
2019-02-16T09:24:57.641Z,10.70
2019-02-16T09:25:57.865Z,9.20
2019-02-16T09:26:58.089Z,9.80
2019-02-16T09:27:58.311Z,8.70
2019-02-16T09:28:58.538Z,9.70
2019-02-16T09:29:58.761Z,9.50
2019-02-16T09:30:58.983Z,9.30
2019-02-16T09:31:59.205Z,9.30
2019-02-16T09:32:59.426Z,10.40
2019-02-16T09:33:59.650Z,9.80
2019-02-16T09:34:59.870Z,9.00
2019-02-16T09:36:00.092Z,11.90
2019-02-16T09:37:00.316Z,10.50
2019-02-16T09:38:00.534Z,10.80
2019-02-16T09:39:00.783Z,10.60
2019-02-16T09:40:01.065Z,11.90
2019-02-16T09:41:01.214Z,9.90
2019-02-16T09:42:01.435Z,11.40
2019-02-16T09:43:01.787Z,11.20
2019-02-16T09:44:01.879Z,12.30
2019-02-16T09:45:02.101Z,10.80
2019-02-16T09:46:02.317Z,11.40
2019-02-16T09:47:02.545Z,13.50
2019-02-16T09:48:02.769Z,9.80
2019-02-16T09:49:02.991Z,12.10
2019-02-16T09:50:03.213Z,12.30
2019-02-16T09:51:03.437Z,8.90
2019-02-16T09:52:03.666Z,9.90
2019-02-16T09:53:03.879Z,10.10
2019-02-16T09:54:08.302Z,11.50
2019-02-16T09:55:04.323Z,14.40
2019-02-16T09:56:04.546Z,11.10
2019-02-16T09:57:04.773Z,13.50
2019-02-16T09:58:04.996Z,11.20
2019-02-16T09:59:05.215Z,13.90
2019-02-16T10:00:05.443Z,10.50
2019-02-16T10:01:05.667Z,10.60
2019-02-16T10:02:05.893Z,9.40
2019-02-16T10:03:06.113Z,11.20
2019-02-16T10:04:06.339Z,11.40
2019-02-16T10:05:06.561Z,11.30
2019-02-16T10:06:06.783Z,10.40
2019-02-16T10:07:07.007Z,10.40
2019-02-16T10:08:07.230Z,10.80
2019-02-16T10:09:07.453Z,11.20
2019-02-16T10:10:07.676Z,11.70
2019-02-16T10:11:07.902Z,13.70
2019-02-16T10:12:08.126Z,11.40
2019-02-16T10:13:08.350Z,12.00
2019-02-16T10:14:08.573Z,11.50
2019-02-16T10:15:08.796Z,10.20
2019-02-16T10:16:09.019Z,11.50
2019-02-16T10:17:10.046Z,10.30
2019-02-16T10:18:09.471Z,9.70
2019-02-16T10:19:09.695Z,10.60
2019-02-16T10:20:09.918Z,9.40
2019-02-16T10:21:10.147Z,11.60
2019-02-16T10:22:10.372Z,9.80
2019-02-16T10:23:10.596Z,12.00
2019-02-16T10:24:17.673Z,9.90
2019-02-16T10:25:11.047Z,12.70
2019-02-16T10:26:11.275Z,10.60
2019-02-16T10:27:11.495Z,11.30
2019-02-16T10:28:11.728Z,11.10
2019-02-16T10:29:11.947Z,8.30
2019-02-16T10:30:12.172Z,7.60
2019-02-16T10:31:12.399Z,10.10
2019-02-16T10:32:12.624Z,9.10
2019-02-16T10:33:12.850Z,9.80
2019-02-16T10:34:13.081Z,8.70
2019-02-16T10:35:13.294Z,8.60
2019-02-16T10:36:13.518Z,8.80
2019-02-16T10:37:13.746Z,9.40
2019-02-16T10:38:13.968Z,8.30
2019-02-16T10:39:14.196Z,10.80
2019-02-16T10:40:14.416Z,9.40
2019-02-16T10:41:14.640Z,8.50
2019-02-16T10:42:14.865Z,10.00
2019-02-16T10:43:15.091Z,8.00
2019-02-16T10:44:15.315Z,8.60
2019-02-16T10:45:15.539Z,8.80
2019-02-16T10:46:15.763Z,8.60
2019-02-16T10:47:15.991Z,10.40
2019-02-16T10:48:16.215Z,7.20
2019-02-16T10:49:16.438Z,10.10
2019-02-16T10:50:16.662Z,10.60
2019-02-16T10:51:16.885Z,11.10
2019-02-16T10:52:17.100Z,9.00
2019-02-16T10:53:17.327Z,9.80
2019-02-16T10:54:26.564Z,9.60
2019-02-16T10:55:17.777Z,10.70
2019-02-16T10:56:18.002Z,9.00
2019-02-16T10:57:18.230Z,9.30
2019-02-16T10:58:18.454Z,8.50
2019-02-16T10:59:18.827Z,8.80
2019-02-16T11:00:18.906Z,8.40
2019-02-16T11:01:19.135Z,8.70
2019-02-16T11:02:19.360Z,7.80
2019-02-16T11:03:19.582Z,7.30
2019-02-16T11:04:19.807Z,8.80
2019-02-16T11:05:20.031Z,8.20
2019-02-16T11:06:20.256Z,10.60
2019-02-16T11:07:20.483Z,8.90
2019-02-16T11:08:20.709Z,8.20
2019-02-16T11:09:20.934Z,9.00
2019-02-16T11:10:21.162Z,11.40
2019-02-16T11:11:21.387Z,9.60
2019-02-16T11:12:21.615Z,10.20
2019-02-16T11:13:21.840Z,9.10
2019-02-16T11:14:22.073Z,8.90
2019-02-16T11:15:22.285Z,8.90
2019-02-16T11:16:22.514Z,8.70
2019-02-16T11:17:22.736Z,9.50
2019-02-16T11:18:22.960Z,8.20
2019-02-16T11:19:23.190Z,7.90
2019-02-16T11:20:23.411Z,8.10
2019-02-16T11:21:23.636Z,8.40
2019-02-16T11:22:23.862Z,9.40
2019-02-16T11:23:24.084Z,8.60
2019-02-16T11:24:24.309Z,11.30
2019-02-16T11:25:24.536Z,10.90
2019-02-16T11:26:24.761Z,8.60
2019-02-16T11:27:24.986Z,9.30
2019-02-16T11:28:25.212Z,8.30
2019-02-16T11:29:25.437Z,10.10
2019-02-16T11:30:25.664Z,8.50
2019-02-16T11:31:25.890Z,9.80
2019-02-16T11:32:26.113Z,12.80
2019-02-16T11:33:26.342Z,9.00
2019-02-16T11:34:26.565Z,10.90
2019-02-16T11:35:26.795Z,10.20
2019-02-16T11:36:27.019Z,9.10
2019-02-16T11:37:27.244Z,9.40
2019-02-16T11:38:27.469Z,10.20
2019-02-16T11:39:27.699Z,8.10
2019-02-16T11:40:27.921Z,8.10
2019-02-16T11:41:28.147Z,8.20
2019-02-16T11:42:28.377Z,9.00
2019-02-16T11:43:28.608Z,8.90
2019-02-16T11:44:28.823Z,8.70
2019-02-16T11:45:29.046Z,9.20
2019-02-16T11:46:29.273Z,8.50
2019-02-16T11:47:29.500Z,7.10
2019-02-16T11:48:29.723Z,7.30
2019-02-16T11:49:29.949Z,10.00
2019-02-16T11:50:30.178Z,8.80
2019-02-16T11:51:30.399Z,8.40
2019-02-16T11:52:30.622Z,9.50
2019-02-16T11:53:30.853Z,7.70
2019-02-16T11:54:31.077Z,8.90
2019-02-16T11:55:31.303Z,10.50
2019-02-16T11:56:31.530Z,8.50
2019-02-16T11:57:31.768Z,8.90
2019-02-16T11:58:31.984Z,10.60
2019-02-16T11:59:32.206Z,8.60
2019-02-16T12:00:32.433Z,10.20
2019-02-16T12:01:32.658Z,10.80
2019-02-16T12:02:39.409Z,7.30
2019-02-16T12:03:33.108Z,8.50
2019-02-16T12:04:33.335Z,9.60
2019-02-16T12:05:33.564Z,7.90
2019-02-16T12:06:33.788Z,8.90
2019-02-16T12:07:34.015Z,11.10
2019-02-16T12:08:34.243Z,9.60
2019-02-16T12:09:36.191Z,9.30
2019-02-16T12:10:34.695Z,9.20
2019-02-16T12:11:34.923Z,8.70
2019-02-16T12:12:35.150Z,8.40
2019-02-16T12:13:36.266Z,9.00
2019-02-16T12:14:35.613Z,8.60
2019-02-16T12:15:35.854Z,8.50
2019-02-16T12:16:36.083Z,10.40
2019-02-16T12:17:36.309Z,8.40
2019-02-16T12:18:36.542Z,9.70
2019-02-16T12:19:36.760Z,8.90
2019-02-16T12:20:36.979Z,8.90
2019-02-16T12:21:38.762Z,8.90
2019-02-16T12:22:37.483Z,8.50
2019-02-16T12:23:37.710Z,9.20
2019-02-16T12:24:37.942Z,8.50
2019-02-16T12:25:38.165Z,8.70
2019-02-16T12:26:38.396Z,9.90
2019-02-16T12:27:38.611Z,7.90
2019-02-16T12:28:38.836Z,9.50
2019-02-16T12:29:39.063Z,9.30
2019-02-16T12:30:39.297Z,9.20
2019-02-16T12:31:39.520Z,10.20
2019-02-16T12:32:39.747Z,8.70
2019-02-16T12:33:39.983Z,8.80
2019-02-16T12:34:40.198Z,8.70
2019-02-16T12:35:40.425Z,10.20
2019-02-16T12:36:40.651Z,8.70
2019-02-16T12:37:40.885Z,9.10
2019-02-16T12:38:41.131Z,9.20
2019-02-16T12:39:41.376Z,8.00
2019-02-16T12:40:41.621Z,7.80
2019-02-16T12:41:41.847Z,7.00
2019-02-16T12:42:42.077Z,9.00
2019-02-16T12:43:42.304Z,7.80
2019-02-16T12:44:42.530Z,7.20
2019-02-16T12:45:50.940Z,11.10
2019-02-16T12:46:42.988Z,7.60
2019-02-16T12:47:43.214Z,9.20
2019-02-16T12:48:43.442Z,9.60
2019-02-16T12:49:43.670Z,8.90
2019-02-16T12:50:43.896Z,9.30
2019-02-16T12:51:44.135Z,10.20
2019-02-16T12:52:44.353Z,9.80
2019-02-16T12:53:44.575Z,10.70
2019-02-16T12:54:44.821Z,9.50
2019-02-16T12:55:45.062Z,10.30
2019-02-16T12:56:45.267Z,9.80
2019-02-16T12:57:45.499Z,10.60
2019-02-16T12:58:45.759Z,8.80
2019-02-16T12:59:45.954Z,9.50
2019-02-16T13:00:46.167Z,9.20